WetterOnline ( https://www.wetteronline.de )

Wetter aktuell Ostalb (in 700m)

Aktuelles Wetter: Geislingen/Stötten (737m)

6-stündlich | Neueste Meldungen
Ortszeit Temperatur Wetter
Do, 29.09. 8:00 4.9° C bedeckt
Do, 29.09. 2:00 4.9° C bedeckt
Mi, 28.09. 20:00 6.0° C wolkig
Mi, 28.09. 14:00 7.7° C bewölkt
Mi, 28.09. 8:00 5.4° C Regen
Mi, 28.09. 2:00 5.4° C leichter Regen
Di, 27.09. 20:00 6.4° C bedeckt
Di, 27.09. 14:00 8.1° C bedeckt
Ortszeit Temperatur Wetter
Do, 29.09. 11:00 7.3° C bedeckt
Do, 29.09. 10:30 6.9° C bedeckt
Do, 29.09. 10:20 6.9° C bedeckt
Do, 29.09. 10:10 6.7° C bewölkt
Do, 29.09. 10:00 6.5° C bewölkt
Do, 29.09. 9:50 6.5° C bewölkt
Do, 29.09. 9:30 6.2° C bedeckt
Do, 29.09. 9:00 5.3° C bedeckt
Do, 29.09. 8:30 4.6° C bedeckt
Do, 29.09. 8:00 4.9° C bedeckt
Ortszeit Relative Feuchte Sichtweite
Do, 29.09. 8:00 97% 20 km
Do, 29.09. 2:00 93% 50 km
Mi, 28.09. 20:00 91% 45 km
Mi, 28.09. 14:00 87% 60 km
Mi, 28.09. 8:00 100% 0.4 km
Mi, 28.09. 2:00 97% 35 km
Di, 27.09. 20:00 79% >70 km
Di, 27.09. 14:00 77% >70 km
Ortszeit Relative Feuchte Sichtweite
Do, 29.09. 11:00 87% 45 km
Do, 29.09. 10:30 91% 35 km
Do, 29.09. 10:20 91% -
Do, 29.09. 10:10 91% -
Do, 29.09. 10:00 88% 35 km
Do, 29.09. 9:50 88% -
Do, 29.09. 9:30 93% 35 km
Do, 29.09. 9:00 98% 16 km
Do, 29.09. 8:30 99% 2.9 km
Do, 29.09. 8:00 97% 20 km
Ortszeit Niederschlagsmenge Niederschlagsart
Do, 29.09. 8:00 0.0 l/m2 in 12 Std. -
Do, 29.09. 2:00 0.0 l/m2 in 6 Std. -
Mi, 28.09. 20:00 4 l/m2 in 12 Std. -
Mi, 28.09. 14:00 4 l/m2 in 6 Std. Regen
Mi, 28.09. 8:00 6 l/m2 in 12 Std. Regen
Mi, 28.09. 2:00 3 l/m2 in 6 Std. Regen
Di, 27.09. 20:00 3 l/m2 in 12 Std. Regen
Di, 27.09. 14:00 0.6 l/m2 in 6 Std. Regen
Ortszeit Niederschlagsmenge Niederschlagsart
Do, 29.09. 11:00 keine Meldung -
Do, 29.09. 10:30 <0.05 l/m2 in 1 Std. Schneeregen
Do, 29.09. 10:20 keine Meldung -
Do, 29.09. 10:10 keine Meldung -
Do, 29.09. 10:00 <0.05 l/m2 in 1 Std. Regen
Do, 29.09. 9:50 keine Meldung -
Do, 29.09. 9:30 0.0 l/m2 in 1 Std. -
Do, 29.09. 9:00 0.0 l/m2 in 1 Std. -
Do, 29.09. 8:30 0.0 l/m2 in 1 Std. -
Do, 29.09. 8:00 0.0 l/m2 in 1 Std. -
Ortszeit Stärke Spitze Richtung
km/h Bft. km/h Grad Sektor
Do, 29.09. 8:00 7 2 14 130° SO
Do, 29.09. 2:00 7 2 14 190° S
Mi, 28.09. 20:00 11 2 32 230° SW
Mi, 28.09. 14:00 22 4 36 280° W
Mi, 28.09. 8:00 19 3 48 290° W
Mi, 28.09. 2:00 7 2 61 190° S
Di, 27.09. 20:00 36 5 58 260° W
Di, 27.09. 14:00 32 5 65 250° W
Ortszeit Stärke Spitze Richtung
km/h Bft. km/h Grad Sektor
Do, 29.09. 11:00 7 2 14 110° O
Do, 29.09. 10:30 9 2 13 100° O
Do, 29.09. 10:20 9 2 - 100° O
Do, 29.09. 10:10 9 2 - 100° O
Do, 29.09. 10:00 6 1 9 100° O
Do, 29.09. 9:50 6 1 - 100° O
Do, 29.09. 9:30 4 1 7 140° SO
Do, 29.09. 9:00 4 1 14 130° SO
Do, 29.09. 8:30 7 2 14 140° SO
Do, 29.09. 8:00 7 2 11 130° SO
Ortszeit Untergrenze Bedeckung Gattung
total tief tief mittel hoch
Do, 29.09. 8:00 1320 m 8/8 8/8 - - -
Do, 29.09. 2:00 6000 m 8/8 8/8 - - -
Mi, 28.09. 20:00 690 m 8/8 1/8 - - -
Mi, 28.09. 14:00 270 m 7/8 7/8 - - -
Mi, 28.09. 8:00 30 m 7/8 7/8 - - -
Mi, 28.09. 2:00 450 m 7/8 7/8 - - -
Di, 27.09. 20:00 1290 m 8/8 8/8 - - -
Di, 27.09. 14:00 690 m 8/8 8/8 - - -
Ortszeit Bedeckungsgrad in Achtel und Wolkenuntergrenze
Do, 29.09. 11:00 3(1800m) 8(2700m)
Do, 29.09. 10:30 3(1350m) 8(2700m) 8(3900m)
Do, 29.09. 10:20 3(1350m) 8(2700m) 8(3900m)
Do, 29.09. 10:10 7
Do, 29.09. 10:00 5(1200m) 7(1500m) 7(3000m)
Do, 29.09. 9:50 5(1200m) 7(1500m) 7(3000m)
Do, 29.09. 9:30 8(1230m) 8(3300m)
Do, 29.09. 9:00 2(<30m) 8(1170m) 8(3300m)
Do, 29.09. 8:30 2(<30m) 8(1230m)
Do, 29.09. 8:00 8(1320m)
Ortszeit Luftdruck NN (hPa) Tendenz (hPa in 3 Std.)
Do, 29.09. 8:00 1003 + 0,1
Do, 29.09. 2:00 1003 - 0,3
Mi, 28.09. 20:00 1001 + 0,6
Mi, 28.09. 14:00 1000 + 0,8
Mi, 28.09. 8:00 998 - 0,3
Mi, 28.09. 2:00 1002 - 1,6
Di, 27.09. 20:00 1003 + 0,4
Di, 27.09. 14:00 1002 + 0,1
Ortszeit Luftdruck NN (hPa) Tendenz (hPa in 3 Std.)
Do, 29.09. 11:00 1003 + 0,7
Do, 29.09. 10:30 1002 + 0,3
Do, 29.09. 10:20 1002 keine Meldung
Do, 29.09. 10:10 1002 keine Meldung
Do, 29.09. 10:00 1003 + 0,7
Do, 29.09. 9:50 1003 keine Meldung
Do, 29.09. 9:30 1003 + 0,7
Do, 29.09. 9:00 1003 + 0,3
Do, 29.09. 8:30 1003 + 0,5
Do, 29.09. 8:00 1003 + 0,1
Ortszeit Schneehöhe (cm)
Do, 29.09. 8:00 0
Do, 29.09. 2:00 0
Mi, 28.09. 20:00 0
Mi, 28.09. 14:00 0
Mi, 28.09. 8:00 0
Mi, 28.09. 2:00 0
Di, 27.09. 20:00 0
Di, 27.09. 14:00 0
Ortszeit Schneehöhe (cm)
Do, 29.09. 11:00 -
Do, 29.09. 10:30 0
Do, 29.09. 10:20 0
Do, 29.09. 10:10 0
Do, 29.09. 10:00 0
Do, 29.09. 9:50 0
Do, 29.09. 9:30 0
Do, 29.09. 9:00 0
Do, 29.09. 8:30 0
Do, 29.09. 8:00 0
Link zu dieser Seite / Seite empfehlen

Das Wetter in ...